Time;durP1;ratioP1;P1;durP2;ratioP2;P2;SDS_P1;SDS_P2;PMS_P1;PMS_P2;Temp;Humidity;BMP_temperature;BMP_pressure;BME280_temperature;BME280_humidity;BME280_pressure;Samples;Min_cycle;Max_cycle;Signal;HPM_P1;HPM_P2
2022/06/17 00:00:59;;;;;;;1.90;1.13;;;15.10;99.90;;;;;;7389784;19;20348;-75
2022/06/17 00:03:25;;;;;;;1.20;1.20;;;15.10;99.90;;;;;;7390665;19;20329;-75
2022/06/17 00:05:52;;;;;;;1.20;1.20;;;15.10;99.90;;;;;;7388241;19;20847;-75
2022/06/17 00:08:20;;;;;;;0.93;0.93;;;15.00;99.90;;;;;;7387589;19;20316;-75
2022/06/17 00:10:46;;;;;;;1.40;1.30;;;15.00;99.90;;;;;;7389092;19;20817;-75
2022/06/17 00:13:17;;;;;;;1.45;1.20;;;15.00;99.90;;;;;;7389538;19;20348;-75
2022/06/17 00:15:45;;;;;;;1.23;1.10;;;15.00;99.90;;;;;;7391015;19;20341;-76
2022/06/17 00:18:11;;;;;;;1.30;1.20;;;14.90;99.90;;;;;;7391134;19;20424;-78
2022/06/17 00:20:37;;;;;;;1.25;1.20;;;14.90;99.90;;;;;;7390227;19;20874;-74
2022/06/17 00:23:02;;;;;;;1.50;1.37;;;14.80;99.90;;;;;;7388844;19;20343;-76
2022/06/17 00:25:33;;;;;;;1.23;1.20;;;14.90;99.90;;;;;;7389022;19;20324;-74
2022/06/17 00:27:58;;;;;;;1.30;1.20;;;14.90;99.90;;;;;;7389118;19;20328;-74
2022/06/17 00:30:26;;;;;;;1.20;1.10;;;14.80;99.90;;;;;;7389458;19;20304;-74
2022/06/17 00:32:56;;;;;;;1.20;1.10;;;14.80;99.90;;;;;;7390824;19;20341;-74
2022/06/17 00:35:22;;;;;;;1.00;1.00;;;14.80;99.90;;;;;;7389120;19;21830;-74
2022/06/17 00:37:48;;;;;;;2.15;1.20;;;14.80;99.90;;;;;;7388863;19;20320;-75
2022/06/17 00:40:23;;;;;;;1.93;1.40;;;14.80;99.90;;;;;;7390012;19;20724;-75
2022/06/17 00:42:49;;;;;;;1.20;1.00;;;14.70;99.90;;;;;;7389157;19;20308;-76
2022/06/17 00:45:30;;;;;;;1.30;1.20;;;14.70;99.90;;;;;;7387017;19;20323;-75
2022/06/17 00:48:28;;;;;;;1.30;1.20;;;14.70;99.90;;;;;;7280027;19;2004454;-74
2022/06/17 00:51:18;;;;;;;1.40;1.30;;;14.70;99.90;;;;;;7278505;19;2004579;-74
2022/06/17 00:53:52;;;;;;;1.55;1.45;;;14.60;99.90;;;;;;7380314;19;20658;-75
2022/06/17 00:56:23;;;;;;;1.35;1.25;;;14.20;99.90;;;;;;7379530;19;20329;-75
2022/06/17 00:59:00;;;;;;;1.75;1.30;;;14.20;99.90;;;;;;7377369;19;20328;-75
2022/06/17 01:01:27;;;;;;;1.20;1.20;;;14.20;99.90;;;;;;7271088;19;2004362;-75
2022/06/17 01:03:55;;;;;;;1.63;1.20;;;14.20;99.90;;;;;;7374784;19;20348;-77
2022/06/17 01:06:22;;;;;;;1.27;1.20;;;14.20;99.90;;;;;;7376871;19;20956;-74
2022/06/17 01:11:40;;;;;;;1.40;1.30;;;14.20;99.90;;;;;;7273209;19;2004465;-74
2022/06/17 01:14:06;;;;;;;1.35;1.25;;;14.20;99.90;;;;;;7375730;19;20340;-78
2022/06/17 01:16:34;;;;;;;1.30;1.20;;;14.10;99.90;;;;;;7377294;19;20351;-82
2022/06/17 01:19:21;;;;;;;1.65;1.20;;;14.10;99.90;;;;;;7379952;19;20352;-75
2022/06/17 01:21:51;;;;;;;1.27;1.20;;;14.10;99.90;;;;;;7375965;19;20850;-77
2022/06/17 01:24:18;;;;;;;1.50;1.30;;;14.10;99.90;;;;;;7376847;19;20400;-75
2022/06/17 01:26:44;;;;;;;1.40;1.30;;;14.00;99.90;;;;;;7376693;19;20364;-75
2022/06/17 01:29:12;;;;;;;3.00;1.30;;;14.00;99.90;;;;;;7376272;19;20376;-75
2022/06/17 01:31:38;;;;;;;1.20;1.20;;;13.90;99.90;;;;;;7373443;19;20341;-75
2022/06/17 01:34:03;;;;;;;1.30;1.20;;;13.90;99.90;;;;;;7369740;19;20332;-79
2022/06/17 01:36:29;;;;;;;1.40;1.30;;;13.80;99.90;;;;;;7372446;19;20335;-76
2022/06/17 01:38:56;;;;;;;1.30;1.20;;;13.80;99.90;;;;;;7374447;19;20333;-83
2022/06/17 01:41:29;;;;;;;1.13;1.13;;;13.70;99.90;;;;;;7373210;19;20337;-78
2022/06/17 01:43:56;;;;;;;1.15;1.15;;;13.70;99.90;;;;;;7270327;19;2005099;-74
2022/06/17 01:46:42;;;;;;;1.30;1.20;;;13.70;99.90;;;;;;7372245;19;20317;-77
2022/06/17 01:49:18;;;;;;;1.13;1.13;;;13.70;99.90;;;;;;7271366;19;2004739;-77
2022/06/17 01:51:58;;;;;;;1.10;1.10;;;13.60;99.90;;;;;;7370930;19;20320;-78
2022/06/17 01:54:27;;;;;;;1.40;1.30;;;13.50;99.90;;;;;;7268548;19;2004201;-76
2022/06/17 01:56:53;;;;;;;3.17;1.38;;;13.50;99.90;;;;;;7370005;19;20317;-74
2022/06/17 01:59:36;;;;;;;1.75;1.20;;;13.40;99.90;;;;;;7377366;19;20332;-78
2022/06/17 02:02:03;;;;;;;1.48;1.20;;;13.30;99.90;;;;;;7274026;19;2004204;-76
2022/06/17 02:04:33;;;;;;;1.20;1.10;;;13.20;99.90;;;;;;7378148;19;20336;-81
2022/06/17 02:07:22;;;;;;;1.30;1.20;;;13.30;99.90;;;;;;7378995;19;20952;-80
2022/06/17 02:09:48;;;;;;;1.38;1.25;;;13.20;99.90;;;;;;7379622;19;20329;-76
2022/06/17 02:12:17;;;;;;;1.50;1.40;;;13.10;99.90;;;;;;7375929;19;20879;-76
2022/06/17 02:14:47;;;;;;;1.10;1.10;;;13.10;99.90;;;;;;7377877;19;20354;-80
2022/06/17 02:17:32;;;;;;;1.42;1.33;;;13.00;99.90;;;;;;7278444;19;2004369;-79
2022/06/17 02:20:13;;;;;;;1.45;1.35;;;13.00;99.90;;;;;;7378758;19;20691;-79
2022/06/17 02:22:39;;;;;;;1.33;1.27;;;13.00;99.90;;;;;;7377052;19;20341;-74
2022/06/17 02:25:09;;;;;;;1.42;1.33;;;12.90;99.90;;;;;;7377885;19;20917;-81
2022/06/17 02:27:35;;;;;;;1.83;1.30;;;12.90;99.90;;;;;;7378944;19;21026;-74
2022/06/17 02:30:07;;;;;;;1.40;1.30;;;12.90;99.90;;;;;;7377298;19;20317;-78
2022/06/17 02:32:33;;;;;;;1.10;1.10;;;12.90;99.90;;;;;;7374770;19;20333;-78
2022/06/17 02:35:12;;;;;;;1.57;1.47;;;12.90;99.90;;;;;;7377550;19;20536;-81
2022/06/17 02:37:37;;;;;;;1.55;1.45;;;12.90;99.90;;;;;;7377659;19;20412;-77
2022/06/17 02:40:05;;;;;;;1.70;1.40;;;12.90;99.90;;;;;;7378832;19;20325;-79
2022/06/17 02:42:37;;;;;;;1.42;1.33;;;12.90;99.90;;;;;;7375766;19;20344;-83
2022/06/17 02:45:14;;;;;;;1.25;1.23;;;12.90;99.90;;;;;;7378293;19;20667;-79
2022/06/17 02:47:40;;;;;;;1.25;1.20;;;12.90;99.90;;;;;;7381012;19;20369;-74
2022/06/17 02:50:06;;;;;;;1.40;1.30;;;12.90;99.90;;;;;;7378424;19;20348;-81
2022/06/17 02:52:36;;;;;;;1.70;1.60;;;12.90;99.90;;;;;;7377750;19;20357;-77
2022/06/17 02:55:18;;;;;;;1.70;1.60;;;12.90;99.90;;;;;;7376761;19;20873;-77
2022/06/17 02:57:47;;;;;;;1.33;1.13;;;12.80;99.90;;;;;;7377833;19;20325;-80
2022/06/17 03:00:17;;;;;;;1.27;1.27;;;12.80;99.90;;;;;;7377246;19;20327;-86
2022/06/17 03:02:48;;;;;;;1.58;1.20;;;12.80;99.90;;;;;;7376084;19;20343;-84
2022/06/17 03:05:22;;;;;;;1.45;1.30;;;12.70;99.90;;;;;;7372623;19;20337;-76
2022/06/17 03:07:49;;;;;;;1.52;1.42;;;12.70;99.90;;;;;;7378154;19;20853;-79
2022/06/17 03:10:25;;;;;;;2.60;1.50;;;12.70;99.90;;;;;;7373781;19;20937;-79
2022/06/17 03:12:55;;;;;;;2.45;1.55;;;12.60;99.90;;;;;;7376832;19;20336;-86
2022/06/17 03:15:21;;;;;;;1.25;1.23;;;12.70;99.90;;;;;;7377286;19;20341;-77
2022/06/17 03:17:47;;;;;;;2.50;1.38;;;12.60;99.90;;;;;;7376992;19;20834;-76
2022/06/17 03:20:24;;;;;;;1.52;1.40;;;12.60;99.90;;;;;;7375360;19;20356;-78
2022/06/17 03:22:51;;;;;;;1.48;1.38;;;12.60;99.90;;;;;;7377355;19;20876;-77
2022/06/17 03:25:55;;;;;;;1.58;1.40;;;12.70;99.90;;;;;;7377479;19;20356;-78
2022/06/17 03:28:26;;;;;;;1.52;1.35;;;12.70;99.90;;;;;;7276917;19;2004430;-78
2022/06/17 03:30:57;;;;;;;1.42;1.20;;;12.70;99.90;;;;;;7370321;19;20337;-76
2022/06/17 03:33:25;;;;;;;1.50;1.40;;;12.70;99.90;;;;;;7361101;19;20313;-78
2022/06/17 03:35:55;;;;;;;1.40;1.30;;;12.70;99.90;;;;;;7373830;19;20340;-79
2022/06/17 03:38:45;;;;;;;1.50;1.40;;;12.70;99.90;;;;;;7375030;19;20408;-75
2022/06/17 03:41:16;;;;;;;1.50;1.40;;;12.80;99.90;;;;;;7273271;19;2004459;-77
2022/06/17 03:43:47;;;;;;;2.60;1.50;;;12.80;99.90;;;;;;7376033;19;21168;-75
2022/06/17 03:46:13;;;;;;;1.45;1.35;;;12.70;99.90;;;;;;7376283;19;20350;-84
2022/06/17 03:48:54;;;;;;;1.60;1.50;;;12.60;99.90;;;;;;7378148;19;20919;-79
2022/06/17 03:51:22;;;;;;;1.45;1.35;;;12.70;99.90;;;;;;7377319;19;20336;-80
2022/06/17 03:53:49;;;;;;;2.05;1.42;;;12.90;99.90;;;;;;7376891;19;20349;-76
2022/06/17 03:56:18;;;;;;;1.60;1.50;;;12.90;99.90;;;;;;7375197;19;20337;-74
2022/06/17 03:58:43;;;;;;;2.53;1.70;;;13.00;99.90;;;;;;7377631;19;20406;-76
2022/06/17 04:01:12;;;;;;;1.75;1.48;;;13.10;99.90;;;;;;7372401;19;20329;-80
2022/06/17 04:03:39;;;;;;;1.73;1.55;;;13.00;99.90;;;;;;7374746;19;20361;-74
2022/06/17 04:06:16;;;;;;;1.60;1.50;;;13.00;99.90;;;;;;7371144;19;21053;-77
2022/06/17 04:08:56;;;;;;;1.30;1.30;;;13.00;99.90;;;;;;7376236;19;20424;-78
2022/06/17 04:11:23;;;;;;;1.80;1.70;;;13.20;99.90;;;;;;7375629;19;20310;-77
2022/06/17 04:13:50;;;;;;;1.63;1.52;;;13.10;99.90;;;;;;7376198;19;20328;-80
2022/06/17 04:16:25;;;;;;;1.55;1.45;;;13.10;99.90;;;;;;7372929;19;20320;-79
2022/06/17 04:18:51;;;;;;;1.33;1.23;;;13.20;99.90;;;;;;7376399;19;20387;-77
2022/06/17 04:21:17;;;;;;;1.70;1.60;;;13.30;99.90;;;;;;7373711;19;20307;-78
2022/06/17 04:23:43;;;;;;;1.60;1.50;;;13.40;99.90;;;;;;7373853;19;20339;-82
2022/06/17 04:26:32;;;;;;;1.60;1.30;;;13.60;99.90;;;;;;7274084;19;2004553;-75
2022/06/17 04:29:07;;;;;;;1.60;1.50;;;13.70;99.90;;;;;;7373560;19;20883;-78
2022/06/17 04:31:34;;;;;;;1.58;1.45;;;13.80;99.90;;;;;;7369706;19;20701;-76
2022/06/17 04:34:14;;;;;;;3.00;1.73;;;13.90;99.90;;;;;;7372948;19;20345;-85
2022/06/17 04:36:52;;;;;;;1.40;1.30;;;14.00;99.90;;;;;;7371753;19;20892;-83
2022/06/17 04:39:37;;;;;;;2.50;1.70;;;14.10;99.90;;;;;;7377106;19;20677;-79
2022/06/17 04:42:22;;;;;;;2.10;1.70;;;14.20;99.90;;;;;;7270210;19;2004488;-77
2022/06/17 04:44:49;;;;;;;1.55;1.40;;;14.40;99.90;;;;;;7377075;19;20309;-80
2022/06/17 04:47:16;;;;;;;1.50;1.40;;;14.50;99.90;;;;;;7376987;19;20332;-78
2022/06/17 04:49:52;;;;;;;1.60;1.50;;;14.60;99.90;;;;;;7378144;19;20666;-80
2022/06/17 04:52:34;;;;;;;1.88;1.70;;;14.80;99.90;;;;;;7374465;19;20367;-81
2022/06/17 04:55:34;;;;;;;2.30;1.50;;;14.80;99.90;;;;;;7171340;19;2004518;-76
2022/06/17 04:58:14;;;;;;;1.50;1.40;;;14.90;99.90;;;;;;7282980;19;2004568;-77
2022/06/17 05:00:46;;;;;;;2.38;1.50;;;15.00;99.90;;;;;;7382109;19;20348;-76
2022/06/17 05:03:13;;;;;;;1.40;1.30;;;15.20;99.90;;;;;;7384980;19;20325;-76
2022/06/17 05:05:50;;;;;;;2.00;1.80;;;15.40;99.90;;;;;;7386610;19;20313;-75
2022/06/17 05:08:34;;;;;;;1.87;1.40;;;15.50;99.90;;;;;;7386957;19;20913;-75
2022/06/17 05:11:15;;;;;;;2.63;1.33;;;15.70;99.90;;;;;;7282118;19;2004236;-75
2022/06/17 05:14:01;;;;;;;1.35;1.25;;;15.80;99.90;;;;;;7385215;19;20345;-76
2022/06/17 05:16:27;;;;;;;2.87;1.70;;;15.90;99.90;;;;;;7282983;19;2004561;-75
2022/06/17 05:18:52;;;;;;;2.58;1.65;;;16.00;99.90;;;;;;7388271;19;20348;-74
2022/06/17 05:21:21;;;;;;;3.22;1.60;;;16.20;99.90;;;;;;7381874;19;20352;-74
2022/06/17 05:23:51;;;;;;;2.50;1.75;;;16.40;99.90;;;;;;7388511;19;20639;-73
2022/06/17 05:26:17;;;;;;;2.10;1.65;;;16.40;99.90;;;;;;7387438;19;20316;-74
2022/06/17 05:28:42;;;;;;;1.30;1.30;;;16.50;99.90;;;;;;7388947;19;20768;-75
2022/06/17 05:31:11;;;;;;;4.03;1.98;;;16.60;99.90;;;;;;7387637;19;20352;-75
2022/06/17 05:33:46;;;;;;;1.73;1.63;;;16.90;99.90;;;;;;7391760;19;20332;-73
2022/06/17 05:36:12;;;;;;;1.60;1.50;;;16.90;99.90;;;;;;7397348;19;20308;-73
2022/06/17 05:38:37;;;;;;;5.93;1.97;;;17.10;99.90;;;;;;7397076;19;20644;-74
2022/06/17 05:41:09;;;;;;;1.75;1.65;;;17.20;99.90;;;;;;7394309;19;20312;-76
2022/06/17 05:43:35;;;;;;;2.60;1.73;;;17.00;99.90;;;;;;7395786;19;20395;-75
2022/06/17 05:46:01;;;;;;;1.58;1.48;;;17.00;99.90;;;;;;7395335;19;20296;-76
2022/06/17 05:48:33;;;;;;;1.85;1.58;;;17.10;99.90;;;;;;7397759;19;20310;-77
2022/06/17 06:02:22;;;;;;;3.17;1.40;;;17.80;99.90;;;;;;7391590;19;20341;-74
2022/06/17 06:05:02;;;;;;;1.88;1.77;;;17.70;99.90;;;;;;7292490;19;2004245;-75
2022/06/17 06:07:31;;;;;;;1.60;1.50;;;18.10;99.90;;;;;;7393035;19;20808;-73
2022/06/17 06:09:57;;;;;;;2.17;1.67;;;18.40;99.90;;;;;;7395184;19;20843;-74
2022/06/17 06:12:53;;;;;;;2.03;1.67;;;18.60;99.90;;;;;;7396220;19;20391;-74
2022/06/17 06:18:15;;;;;;;2.47;1.63;;;18.80;99.90;;;;;;7380982;19;20328;-78
2022/06/17 06:20:41;;;;;;;1.70;1.60;;;18.90;99.90;;;;;;7378096;19;20400;-76
2022/06/17 06:23:08;;;;;;;2.60;1.80;;;19.00;99.90;;;;;;7380357;19;20444;-78
2022/06/17 06:25:34;;;;;;;1.65;1.55;;;19.10;99.90;;;;;;7378718;19;21033;-78
2022/06/17 06:28:16;;;;;;;2.17;1.75;;;19.40;99.90;;;;;;7381697;19;20321;-79
2022/06/17 06:30:42;;;;;;;2.50;1.73;;;19.40;99.90;;;;;;7381915;19;20309;-78
2022/06/17 06:33:08;;;;;;;2.45;1.75;;;19.50;99.90;;;;;;7382809;19;20390;-78
2022/06/17 06:35:35;;;;;;;2.05;1.50;;;19.90;99.90;;;;;;7380532;19;20342;-79
2022/06/17 06:38:03;;;;;;;1.92;1.63;;;20.10;99.90;;;;;;7387620;19;20400;-78
2022/06/17 06:40:30;;;;;;;2.50;1.90;;;20.30;99.90;;;;;;7382561;19;20336;-78
2022/06/17 06:42:55;;;;;;;1.83;1.60;;;20.40;99.90;;;;;;7383266;19;20317;-77
2022/06/17 06:45:40;;;;;;;1.90;1.73;;;20.40;99.90;;;;;;7381724;19;20351;-78
2022/06/17 06:48:07;;;;;;;1.70;1.60;;;20.70;99.90;;;;;;7382884;19;20861;-78
2022/06/17 06:50:34;;;;;;;2.33;1.63;;;20.80;99.90;;;;;;7382460;19;20313;-78
2022/06/17 06:53:00;;;;;;;3.40;1.75;;;20.90;99.90;;;;;;7385059;19;20311;-80
2022/06/17 06:55:26;;;;;;;3.08;1.50;;;21.00;99.90;;;;;;7378324;19;20325;-79
2022/06/17 06:57:54;;;;;;;2.45;1.67;;;21.20;99.90;;;;;;7383529;19;20673;-82
2022/06/17 07:00:23;;;;;;;2.00;1.60;;;21.50;99.90;;;;;;7378228;19;20313;-80
2022/06/17 07:02:49;;;;;;;2.30;1.60;;;21.50;99.90;;;;;;7382854;19;20325;-81
2022/06/17 07:05:15;;;;;;;2.03;1.67;;;21.80;99.90;;;;;;7380532;19;20332;-79
2022/06/17 07:07:41;;;;;;;2.77;1.50;;;21.70;99.90;;;;;;7383123;19;20342;-81
2022/06/17 07:10:13;;;;;;;1.98;1.77;;;22.10;99.90;;;;;;7382480;19;20337;-78
2022/06/17 07:12:39;;;;;;;1.88;1.50;;;22.20;99.90;;;;;;7385022;19;20333;-79
2022/06/17 07:15:05;;;;;;;1.80;1.70;;;22.20;99.90;;;;;;7381165;19;20391;-79
2022/06/17 07:17:31;;;;;;;2.65;1.58;;;22.10;99.90;;;;;;7381927;19;20418;-83
2022/06/17 07:19:56;;;;;;;1.70;1.60;;;22.10;99.90;;;;;;7384038;19;21215;-77
2022/06/17 07:22:22;;;;;;;1.70;1.47;;;22.40;99.90;;;;;;7382097;19;20304;-80
2022/06/17 07:24:49;;;;;;;1.90;1.70;;;22.60;99.90;;;;;;7380558;19;20311;-80
2022/06/17 07:27:14;;;;;;;1.42;1.33;;;22.40;99.90;;;;;;7380532;19;20348;-78
2022/06/17 07:29:40;;;;;;;1.60;1.50;;;22.60;99.90;;;;;;7384714;19;20333;-79
2022/06/17 07:32:07;;;;;;;2.05;1.50;;;22.70;99.90;;;;;;7384318;19;20340;-80
2022/06/17 07:34:32;;;;;;;1.40;1.30;;;22.80;99.90;;;;;;7386309;19;20336;-78
2022/06/17 07:39:54;;;;;;;1.88;1.33;;;22.50;99.90;;;;;;7381077;19;20316;-81
2022/06/17 07:42:25;;;;;;;1.50;1.40;;;22.90;99.90;;;;;;7380693;19;20328;-84
2022/06/17 07:44:51;;;;;;;1.70;1.50;;;23.00;99.90;;;;;;7379659;19;20301;-79
2022/06/17 07:47:18;;;;;;;1.73;1.20;;;23.40;99.90;;;;;;7375575;19;20312;-82
2022/06/17 07:49:44;;;;;;;1.60;1.50;;;23.60;99.90;;;;;;7377949;19;20349;-80
2022/06/17 07:52:10;;;;;;;1.30;1.27;;;23.40;99.10;;;;;;7376990;19;21116;-80
2022/06/17 07:54:36;;;;;;;1.23;1.13;;;23.30;99.90;;;;;;7372815;19;20324;-81
2022/06/17 07:57:01;;;;;;;1.95;1.45;;;23.50;99.50;;;;;;7371106;19;20857;-76
2022/06/17 07:59:29;;;;;;;1.60;1.50;;;23.80;99.20;;;;;;7371380;19;20369;-76
2022/06/17 08:01:55;;;;;;;1.50;1.40;;;23.50;96.50;;;;;;7374267;19;20305;-80
2022/06/17 08:04:20;;;;;;;1.30;1.20;;;23.50;97.20;;;;;;7374838;19;20293;-80
2022/06/17 08:06:49;;;;;;;1.60;1.30;;;23.80;98.10;;;;;;7374917;19;20327;-77
2022/06/17 08:09:19;;;;;;;1.30;1.20;;;23.60;97.10;;;;;;7375169;19;20353;-78
2022/06/17 08:11:45;;;;;;;1.23;1.13;;;23.60;97.20;;;;;;7377961;19;20340;-76
2022/06/17 08:14:11;;;;;;;12.15;2.60;;;23.80;98.60;;;;;;7377675;19;20369;-76
2022/06/17 08:16:38;;;;;;;1.50;1.40;;;23.80;97.10;;;;;;7377153;19;20865;-80
2022/06/17 08:19:04;;;;;;;1.80;1.23;;;24.10;96.90;;;;;;7375613;19;20324;-81
2022/06/17 08:21:30;;;;;;;1.40;1.30;;;24.30;96.50;;;;;;7374190;19;20320;-77
2022/06/17 08:23:56;;;;;;;1.80;1.30;;;24.70;96.40;;;;;;7375967;19;20784;-80
2022/06/17 08:26:22;;;;;;;1.42;1.15;;;24.40;95.30;;;;;;7375036;19;20325;-79
2022/06/17 08:28:48;;;;;;;1.30;1.20;;;25.20;95.90;;;;;;7375279;19;20316;-78
2022/06/17 08:31:14;;;;;;;1.23;1.13;;;25.80;94.80;;;;;;7373789;19;20324;-76
2022/06/17 08:33:39;;;;;;;1.57;1.30;;;25.90;94.20;;;;;;7378122;19;20380;-78
2022/06/17 08:36:10;;;;;;;1.52;1.42;;;25.70;93.30;;;;;;7374033;19;20319;-76
2022/06/17 08:38:50;;;;;;;1.30;1.20;;;25.80;92.30;;;;;;7372737;19;20329;-76
2022/06/17 08:41:29;;;;;;;3.22;1.30;;;25.10;91.80;;;;;;7373502;19;20412;-77
2022/06/17 08:44:23;;;;;;;2.92;1.60;;;25.20;92.20;;;;;;7377181;19;20316;-81
2022/06/17 08:47:21;;;;;;;2.72;1.02;;;24.90;92.50;;;;;;7273727;19;2004556;-80
2022/06/17 08:50:09;;;;;;;1.52;1.23;;;25.50;92.90;;;;;;7271197;19;2005955;-77
2022/06/17 08:52:46;;;;;;;2.53;1.20;;;26.10;92.00;;;;;;7273454;19;2004263;-76
2022/06/17 08:55:27;;;;;;;1.73;1.10;;;26.20;91.60;;;;;;7373320;19;20316;-76
2022/06/17 08:58:11;;;;;;;1.38;1.25;;;26.70;91.80;;;;;;7375503;19;20853;-76
2022/06/17 09:00:55;;;;;;;1.20;1.10;;;26.20;88.40;;;;;;7268697;19;2004367;-79
2022/06/17 09:03:40;;;;;;;1.10;1.10;;;26.00;90.40;;;;;;7375316;19;20996;-81
2022/06/17 09:06:41;;;;;;;2.10;1.10;;;26.20;90.80;;;;;;7272971;19;2004425;-76
2022/06/17 09:09:34;;;;;;;1.42;1.30;;;26.10;87.20;;;;;;7276649;19;2004516;-81
2022/06/17 09:12:01;;;;;;;2.65;1.30;;;26.30;89.20;;;;;;7275645;19;2004396;-80
2022/06/17 09:14:49;;;;;;;2.10;1.23;;;25.40;88.90;;;;;;7380830;19;20324;-77
2022/06/17 09:17:23;;;;;;;1.30;1.20;;;25.40;90.80;;;;;;7378648;19;20361;-79
2022/06/17 09:19:52;;;;;;;2.17;1.17;;;25.50;91.00;;;;;;7380938;19;20346;-78
2022/06/17 09:22:32;;;;;;;1.45;1.20;;;26.20;90.10;;;;;;7380111;19;20329;-79
2022/06/17 09:25:02;;;;;;;1.10;1.10;;;26.30;88.00;;;;;;7277909;19;2004528;-78
2022/06/17 09:27:33;;;;;;;2.40;1.48;;;26.20;88.30;;;;;;7380495;19;20352;-76
2022/06/17 09:30:04;;;;;;;1.30;1.20;;;26.40;88.50;;;;;;7381428;19;20387;-77
2022/06/17 09:32:36;;;;;;;2.00;1.30;;;26.90;86.90;;;;;;7379168;19;20853;-77
2022/06/17 09:35:13;;;;;;;4.03;2.60;;;27.00;85.20;;;;;;7379086;19;20332;-75
2022/06/17 09:37:57;;;;;;;2.10;1.30;;;27.40;87.80;;;;;;7377778;19;20363;-76
2022/06/17 09:40:29;;;;;;;1.30;1.20;;;27.70;83.20;;;;;;7379654;19;20340;-78
2022/06/17 09:43:05;;;;;;;0.93;0.93;;;27.60;82.00;;;;;;7383794;19;20300;-77
2022/06/17 09:45:46;;;;;;;1.10;1.10;;;27.60;83.50;;;;;;7276426;19;2004417;-77
2022/06/17 09:48:18;;;;;;;7.45;2.00;;;27.40;83.10;;;;;;7380288;19;20347;-77
2022/06/17 09:50:49;;;;;;;1.37;1.20;;;26.50;78.60;;;;;;7382452;19;20397;-78
2022/06/17 09:53:42;;;;;;;1.00;1.00;;;27.00;84.10;;;;;;7387268;19;20345;-77
2022/06/17 09:56:15;;;;;;;2.22;1.30;;;27.50;80.20;;;;;;7278100;19;2004740;-77
2022/06/17 09:58:59;;;;;;;1.02;1.02;;;28.10;80.40;;;;;;7380456;19;21168;-78
2022/06/17 10:01:25;;;;;;;1.20;1.10;;;28.40;76.50;;;;;;7374358;19;20313;-76
2022/06/17 10:03:51;;;;;;;1.40;1.30;;;28.60;77.50;;;;;;7379515;19;21342;-77
2022/06/17 10:06:26;;;;;;;1.77;1.27;;;28.60;77.10;;;;;;7371354;19;20757;-76
2022/06/17 10:09:13;;;;;;;2.10;1.25;;;27.40;74.70;;;;;;7380300;19;20853;-77
2022/06/17 10:11:48;;;;;;;1.00;1.00;;;27.00;78.10;;;;;;7277660;19;2004254;-77
2022/06/17 10:14:17;;;;;;;1.10;1.00;;;27.10;76.20;;;;;;7380447;19;20321;-80
2022/06/17 10:20:10;;;;;;;1.25;1.15;;;27.90;78.60;;;;;;7276518;19;2004242;-77
2022/06/17 10:22:47;;;;;;;1.40;1.30;;;28.10;74.80;;;;;;7278672;19;2004212;-78
2022/06/17 10:25:38;;;;;;;1.33;1.10;;;28.10;76.10;;;;;;7376888;19;20332;-77
2022/06/17 10:28:15;;;;;;;1.17;1.08;;;28.60;75.60;;;;;;7275603;19;2004154;-78
2022/06/17 10:31:06;;;;;;;1.00;1.00;;;28.50;73.50;;;;;;7376531;19;20339;-77
2022/06/17 10:33:32;;;;;;;1.30;1.20;;;28.90;72.10;;;;;;7278006;19;2004434;-77
2022/06/17 10:35:59;;;;;;;0.90;0.90;;;29.30;72.10;;;;;;7377994;19;20312;-78
2022/06/17 10:38:31;;;;;;;1.20;1.10;;;29.80;69.90;;;;;;7382541;19;20321;-78
2022/06/17 10:40:57;;;;;;;1.10;1.10;;;29.80;69.80;;;;;;7383947;19;20317;-78
2022/06/17 10:43:40;;;;;;;1.00;1.00;;;30.00;68.40;;;;;;7382479;19;20328;-78
2022/06/17 10:46:05;;;;;;;1.10;1.00;;;30.10;69.80;;;;;;7284853;19;2004381;-77
2022/06/17 10:48:53;;;;;;;1.52;1.02;;;30.60;67.60;;;;;;7396932;19;20665;-79
2022/06/17 10:51:19;;;;;;;0.90;0.90;;;30.70;65.50;;;;;;7378375;19;20305;-76
2022/06/17 10:53:47;;;;;;;1.30;1.20;;;30.00;67.30;;;;;;7384050;19;20317;-78
2022/06/17 10:56:21;;;;;;;1.08;1.02;;;30.00;63.80;;;;;;7380536;19;20316;-78
2022/06/17 10:58:58;;;;;;;0.88;0.88;;;30.40;67.10;;;;;;7377466;19;20372;-78
2022/06/17 11:01:28;;;;;;;1.30;1.20;;;30.60;63.70;;;;;;7373621;19;20333;-78
2022/06/17 11:04:10;;;;;;;1.13;1.10;;;31.30;64.10;;;;;;7383118;19;20329;-79
2022/06/17 11:06:38;;;;;;;3.97;1.42;;;31.40;64.50;;;;;;7252497;19;2004439;-78
2022/06/17 11:09:05;;;;;;;1.20;1.00;;;31.40;63.20;;;;;;7383466;19;20409;-78
2022/06/17 11:14:29;;;;;;;2.10;0.90;;;31.10;62.10;;;;;;7385282;19;22931;-78
2022/06/17 11:16:56;;;;;;;1.80;1.00;;;31.70;61.20;;;;;;7381218;19;20329;-78
2022/06/17 11:19:23;;;;;;;2.00;0.90;;;31.40;58.80;;;;;;7379957;19;20968;-78
2022/06/17 11:21:51;;;;;;;1.17;0.95;;;31.50;59.50;;;;;;7386635;19;20342;-77
2022/06/17 11:24:28;;;;;;;0.90;0.90;;;30.90;58.70;;;;;;7380299;19;20349;-77
2022/06/17 11:27:17;;;;;;;1.08;0.88;;;30.50;59.10;;;;;;7379772;19;20857;-77
2022/06/17 11:29:48;;;;;;;1.33;0.88;;;30.70;61.30;;;;;;7278423;19;2004395;-77
2022/06/17 11:32:19;;;;;;;1.20;1.00;;;31.00;57.90;;;;;;7376946;19;20330;-78
2022/06/17 11:34:53;;;;;;;0.90;0.90;;;30.80;58.60;;;;;;7379326;19;20348;-78
2022/06/17 11:37:32;;;;;;;1.60;1.00;;;30.10;56.50;;;;;;7382235;19;20329;-78
2022/06/17 11:40:09;;;;;;;1.20;0.90;;;31.10;59.10;;;;;;7274660;19;2004568;-77
2022/06/17 11:42:35;;;;;;;0.80;0.80;;;31.40;58.00;;;;;;7377784;19;20340;-78
2022/06/17 11:45:10;;;;;;;2.10;1.35;;;32.00;59.40;;;;;;7383472;19;20643;-78
2022/06/17 11:47:35;;;;;;;1.70;0.90;;;31.80;57.80;;;;;;7380790;19;20348;-78
2022/06/17 11:50:13;;;;;;;0.77;0.77;;;32.20;58.40;;;;;;7393594;19;20333;-78
2022/06/17 11:52:39;;;;;;;1.55;1.45;;;31.90;57.40;;;;;;7406333;19;20356;-78
2022/06/17 11:55:05;;;;;;;1.00;1.00;;;32.50;58.00;;;;;;7388124;19;20332;-77
2022/06/17 11:57:34;;;;;;;1.00;0.90;;;30.60;52.80;;;;;;7376441;19;20413;-77
2022/06/17 12:00:04;;;;;;;0.90;0.90;;;30.80;55.80;;;;;;7378557;19;20326;-77
2022/06/17 12:02:53;;;;;;;0.95;0.95;;;30.90;56.70;;;;;;7391702;19;20320;-79
2022/06/17 12:05:25;;;;;;;1.23;1.08;;;31.30;55.80;;;;;;7387592;19;20685;-78
2022/06/17 12:08:15;;;;;;;0.98;0.98;;;30.20;54.60;;;;;;7384413;19;20301;-78
2022/06/17 12:10:50;;;;;;;1.00;1.00;;;30.30;55.40;;;;;;7292281;19;2004292;-79
2022/06/17 12:13:41;;;;;;;1.10;0.90;;;31.40;56.10;;;;;;7387339;19;21046;-78
2022/06/17 12:16:33;;;;;;;0.90;0.90;;;32.70;56.70;;;;;;7290842;19;2004163;-78
2022/06/17 12:19:02;;;;;;;1.30;0.80;;;33.10;54.50;;;;;;7285956;19;2024328;-78
2022/06/17 12:21:36;;;;;;;1.10;1.00;;;32.50;51.60;;;;;;7382306;19;20341;-78
2022/06/17 12:24:27;;;;;;;0.90;0.90;;;33.30;54.30;;;;;;7381542;19;20325;-78
2022/06/17 12:27:17;;;;;;;1.40;1.00;;;33.00;54.00;;;;;;7379425;19;20401;-77
2022/06/17 12:29:55;;;;;;;0.80;0.80;;;33.20;53.80;;;;;;7278954;19;2004381;-78
2022/06/17 12:32:51;;;;;;;1.08;0.98;;;33.40;53.70;;;;;;7380793;19;20341;-78
2022/06/17 12:35:32;;;;;;;1.10;1.00;;;33.40;51.30;;;;;;7129942;19;2004483;-78
2022/06/17 12:38:09;;;;;;;2.30;0.98;;;33.90;51.20;;;;;;7377010;19;20304;-78
2022/06/17 12:40:39;;;;;;;0.90;0.90;;;34.00;49.90;;;;;;7248046;19;2004489;-77
2022/06/17 12:43:24;;;;;;;1.10;1.10;;;34.40;50.30;;;;;;7377470;19;20337;-78
2022/06/17 12:45:55;;;;;;;0.82;0.82;;;33.80;49.80;;;;;;7380487;19;20330;-78
2022/06/17 12:48:58;;;;;;;2.28;1.00;;;34.20;51.40;;;;;;7375041;19;20412;-77
2022/06/17 12:54:46;;;;;;;0.80;0.80;;;34.00;50.10;;;;;;7172306;19;2004385;-77
2022/06/17 12:57:38;;;;;;;0.93;0.93;;;33.70;48.30;;;;;;7371869;19;20348;-77
2022/06/17 13:00:15;;;;;;;1.15;1.13;;;33.10;50.00;;;;;;7270705;19;2004705;-77
2022/06/17 13:02:59;;;;;;;1.00;0.90;;;32.80;49.60;;;;;;7378412;19;20341;-78
2022/06/17 13:05:44;;;;;;;0.80;0.80;;;33.30;50.60;;;;;;7382419;19;20940;-77
2022/06/17 13:08:31;;;;;;;1.63;0.80;;;33.40;49.80;;;;;;7281125;19;2004395;-78
2022/06/17 13:11:21;;;;;;;1.70;1.10;;;33.70;48.50;;;;;;7384093;19;20392;-78
2022/06/17 13:14:47;;;;;;;2.25;2.05;;;33.80;49.90;;;;;;7261277;19;2004380;-79
2022/06/17 13:17:22;;;;;;;0.98;0.90;;;34.10;50.00;;;;;;7292970;19;2004168;-78
2022/06/17 13:20:37;;;;;;;0.85;0.85;;;34.30;49.60;;;;;;7395876;19;20349;-78
2022/06/17 13:23:24;;;;;;;0.82;0.82;;;34.30;48.20;;;;;;7196886;19;2004346;-79
2022/06/17 13:25:55;;;;;;;0.77;0.77;;;33.90;47.80;;;;;;7387055;19;20345;-78
2022/06/17 13:28:33;;;;;;;1.37;1.10;;;33.90;48.90;;;;;;7391266;19;20309;-78
2022/06/17 13:31:09;;;;;;;1.00;1.00;;;33.80;49.50;;;;;;7285715;19;2004543;-77
2022/06/17 13:33:53;;;;;;;0.93;0.93;;;33.70;48.90;;;;;;7362452;19;20353;-78
2022/06/17 13:36:47;;;;;;;1.25;1.00;;;33.70;47.40;;;;;;7376894;19;24957;-78
2022/06/17 13:39:23;;;;;;;1.20;1.10;;;33.80;48.20;;;;;;7396834;19;21372;-78
2022/06/17 13:42:03;;;;;;;4.13;1.55;;;33.80;47.20;;;;;;7398660;19;20352;-78
2022/06/17 13:44:50;;;;;;;1.00;0.90;;;33.50;48.00;;;;;;7394563;19;20715;-79